Time;durP1;ratioP1;P1;durP2;ratioP2;P2;SDS_P1;SDS_P2;PMS_P1;PMS_P2;Temp;Humidity;BMP_temperature;BMP_pressure;BME280_temperature;BME280_humidity;BME280_pressure;Samples;Min_cycle;Max_cycle;Signal;HPM_P1;HPM_P2
2023/01/14 00:02:19;;;;;;;10.40;6.40;;;;;;;6.86;83.20;99841.56;131368;1252;106712;-74
2023/01/14 00:05:24;;;;;;;11.00;6.70;;;;;;;6.89;82.99;99841.27;131126;1248;108627;-73
2023/01/14 00:08:31;;;;;;;9.70;6.60;;;;;;;6.89;82.57;99846.73;131103;1253;107527;-73
2023/01/14 00:11:49;;;;;;;11.00;6.60;;;;;;;6.87;82.93;99845.83;131236;1248;107638;-72
2023/01/14 00:14:54;;;;;;;9.70;6.20;;;;;;;6.84;82.77;99848.05;131068;1252;107444;-73
2023/01/14 00:18:00;;;;;;;9.80;5.60;;;;;;;6.81;82.78;99850.30;131346;1252;107643;-73
2023/01/14 00:21:10;;;;;;;10.90;5.90;;;;;;;6.80;82.68;99853.00;131166;1254;107530;-73
2023/01/14 00:24:17;;;;;;;10.90;5.90;;;;;;;6.82;82.83;99860.98;131271;1252;107358;-73
2023/01/14 00:27:22;;;;;;;13.40;6.50;;;;;;;6.84;82.99;99867.15;131413;1253;108674;-73
2023/01/14 00:30:28;;;;;;;9.70;5.90;;;;;;;6.87;82.75;99872.94;131126;1254;107383;-73
2023/01/14 00:33:33;;;;;;;10.70;6.50;;;;;;;6.88;82.80;99873.73;131154;1252;107558;-73
2023/01/14 00:36:39;;;;;;;10.00;6.70;;;;;;;6.87;82.53;99875.34;131433;1252;107547;-73
2023/01/14 00:39:45;;;;;;;11.10;6.80;;;;;;;6.87;82.68;99881.54;131412;1248;107517;-74
2023/01/14 00:42:51;;;;;;;11.40;6.80;;;;;;;6.84;82.96;99881.84;131095;1252;106517;-73
2023/01/14 00:45:57;;;;;;;11.50;6.80;;;;;;;6.80;82.76;99883.81;131197;1260;107259;-73
2023/01/14 00:49:04;;;;;;;10.90;6.20;;;;;;;6.75;83.07;99884.08;131353;1247;107377;-74
2023/01/14 00:52:10;;;;;;;8.60;5.80;;;;;;;6.73;82.82;99882.71;131210;1249;107624;-75
2023/01/14 00:55:16;;;;;;;10.00;6.40;;;;;;;6.73;83.00;99890.45;131201;1252;107425;-74
2023/01/14 00:58:22;;;;;;;10.20;6.20;;;;;;;6.74;83.02;99893.90;131014;1254;107521;-74
2023/01/14 01:01:28;;;;;;;10.70;6.40;;;;;;;6.78;82.68;99891.44;131366;1248;106446;-73
2023/01/14 01:04:33;;;;;;;10.80;7.10;;;;;;;6.79;82.63;99891.35;131188;1253;108589;-72
2023/01/14 01:07:40;;;;;;;11.10;7.10;;;;;;;6.77;82.78;99886.20;131329;1254;107576;-73
2023/01/14 01:10:48;;;;;;;10.20;6.50;;;;;;;6.74;82.63;99893.55;131136;1252;107254;-74
2023/01/14 01:13:54;;;;;;;12.90;7.50;;;;;;;6.69;82.82;99894.15;131231;1250;107616;-73
2023/01/14 01:17:01;;;;;;;11.30;6.40;;;;;;;6.63;82.85;99892.19;131062;1252;108665;-73
2023/01/14 01:20:08;;;;;;;11.20;6.10;;;;;;;6.57;82.88;99898.02;131104;1252;107479;-73
2023/01/14 01:23:15;;;;;;;11.10;6.80;;;;;;;6.53;82.98;99894.85;131110;1247;107413;-73
2023/01/14 01:26:23;;;;;;;12.40;7.10;;;;;;;6.49;82.97;99893.95;131124;1251;107530;-73
2023/01/14 01:29:28;;;;;;;10.90;6.80;;;;;;;6.47;82.84;99898.94;131345;1252;107540;-72
2023/01/14 01:32:34;;;;;;;11.80;6.90;;;;;;;6.44;82.99;99895.84;131087;1254;106397;-73
2023/01/14 01:35:39;;;;;;;12.20;7.80;;;;;;;6.42;83.00;99906.63;131149;1252;107520;-75
2023/01/14 01:38:47;;;;;;;10.30;6.90;;;;;;;6.36;83.23;99902.39;131360;1254;107557;-75
2023/01/14 01:41:52;;;;;;;12.30;8.00;;;;;;;6.33;82.94;99904.61;131416;1254;106411;-74
2023/01/14 01:45:22;;;;;;;11.50;6.70;;;;;;;6.29;83.43;99903.11;131311;1253;107529;-75
2023/01/14 01:48:32;;;;;;;9.90;6.00;;;;;;;6.25;83.11;99908.82;131300;1252;107565;-74
2023/01/14 01:51:43;;;;;;;10.30;6.10;;;;;;;6.22;83.13;99913.30;131132;1253;107569;-74
2023/01/14 01:54:52;;;;;;;9.80;5.60;;;;;;;6.23;82.97;99910.58;131087;1252;108643;-74
2023/01/14 01:57:58;;;;;;;9.70;6.50;;;;;;;6.23;82.99;99906.63;131124;1253;107585;-74
2023/01/14 02:01:05;;;;;;;9.90;6.10;;;;;;;6.24;83.10;99905.02;131208;1252;107579;-74
2023/01/14 02:04:12;;;;;;;9.20;6.10;;;;;;;6.22;83.12;99908.34;131240;1252;107508;-74
2023/01/14 02:07:21;;;;;;;9.10;5.70;;;;;;;6.20;83.38;99908.73;131199;1254;107508;-74
2023/01/14 02:10:42;;;;;;;9.40;5.80;;;;;;;6.18;83.10;99912.06;131109;1252;107461;-73
2023/01/14 02:13:59;;;;;;;8.30;4.90;;;;;;;6.16;83.33;99919.50;131151;1254;107307;-74
2023/01/14 02:17:22;;;;;;;8.30;4.80;;;;;;;6.16;83.40;99923.14;131147;1250;107444;-73
2023/01/14 02:20:36;;;;;;;8.60;4.50;;;;;;;6.20;83.20;99926.03;131416;1252;107541;-74
2023/01/14 02:24:19;;;;;;;8.60;5.30;;;;;;;6.25;83.13;99924.48;131275;1254;107528;-75
2023/01/14 02:27:35;;;;;;;6.50;4.40;;;;;;;6.32;83.06;99928.51;130615;1257;107549;-73
2023/01/14 02:30:48;;;;;;;10.90;4.60;;;;;;;6.36;82.57;99929.63;131075;1252;107492;-73
2023/01/14 02:34:01;;;;;;;8.10;4.80;;;;;;;6.33;82.56;99926.88;131098;1253;107499;-74
2023/01/14 02:37:13;;;;;;;9.80;4.80;;;;;;;6.30;82.57;99932.91;131140;1249;109278;-73
2023/01/14 02:40:27;;;;;;;7.70;4.50;;;;;;;6.25;82.54;99937.94;131111;1250;107620;-73
2023/01/14 02:47:07;;;;;;;7.50;3.70;;;;;;;6.15;82.53;99944.98;130788;1254;201662;-73
2023/01/14 02:50:15;;;;;;;8.90;4.10;;;;;;;6.12;82.23;99946.86;131142;1253;107426;-73
2023/01/14 02:53:22;;;;;;;9.80;4.40;;;;;;;6.13;82.15;99948.73;130999;1255;107534;-77
2023/01/14 02:56:28;;;;;;;5.80;3.20;;;;;;;6.17;82.36;99947.61;131274;1248;107487;-73
2023/01/14 02:59:48;;;;;;;9.80;3.50;;;;;;;6.23;82.09;99945.52;131121;1252;107540;-73
2023/01/14 03:03:14;;;;;;;7.80;3.70;;;;;;;6.27;81.94;99948.74;131107;1264;107522;-73
2023/01/14 03:06:30;;;;;;;5.30;2.70;;;;;;;6.27;81.86;99949.03;131001;1254;106004;-73
2023/01/14 03:09:47;;;;;;;8.20;3.40;;;;;;;6.28;81.81;99948.61;131141;1255;107515;-73
2023/01/14 03:13:05;;;;;;;5.80;3.00;;;;;;;6.27;81.87;99949.23;131362;1254;107439;-73
2023/01/14 03:16:21;;;;;;;7.40;3.60;;;;;;;6.25;81.64;99951.69;131297;1254;107409;-73
2023/01/14 03:19:33;;;;;;;7.80;3.00;;;;;;;6.24;81.70;99954.48;131045;1252;107509;-73
2023/01/14 03:22:41;;;;;;;7.60;2.60;;;;;;;6.25;81.68;99951.36;130999;1253;107466;-73
2023/01/14 03:25:49;;;;;;;10.50;3.60;;;;;;;6.29;81.67;99947.14;131231;1251;107693;-74
2023/01/14 03:29:01;;;;;;;5.30;3.00;;;;;;;6.37;81.74;99955.83;131173;1252;107424;-76
2023/01/14 03:32:15;;;;;;;5.70;2.70;;;;;;;6.45;81.47;99957.19;131072;1252;108606;-74
2023/01/14 03:35:21;;;;;;;;;;;;;;;6.51;81.26;99953.71;131167;1255;107520;-73
2023/01/14 03:38:30;;;;;;;5.90;2.50;;;;;;;6.53;81.03;99958.64;131176;1252;107368;-74
2023/01/14 03:45:10;;;;;;;7.50;3.00;;;;;;;6.49;80.75;99965.70;131382;1252;107546;-73
2023/01/14 03:48:16;;;;;;;5.70;2.50;;;;;;;6.49;81.00;99968.39;131314;1250;107515;-73
2023/01/14 03:51:27;;;;;;;4.90;2.30;;;;;;;6.48;81.07;99971.25;131310;1252;107504;-73
2023/01/14 03:54:43;;;;;;;7.80;2.20;;;;;;;6.48;80.87;99973.71;131340;1252;107569;-73
2023/01/14 03:57:55;;;;;;;8.10;2.80;;;;;;;6.49;80.94;99972.77;131415;1252;107458;-73
2023/01/14 04:01:07;;;;;;;6.70;2.50;;;;;;;6.54;81.05;99972.75;131234;1252;107306;-73
2023/01/14 04:04:15;;;;;;;5.60;2.40;;;;;;;6.61;80.72;99972.79;131070;1252;107427;-73
2023/01/14 04:07:21;;;;;;;6.10;2.50;;;;;;;6.68;80.74;99977.80;131165;1252;107653;-73
2023/01/14 04:10:26;;;;;;;5.80;2.70;;;;;;;6.75;80.41;99987.73;131388;1253;107714;-74
2023/01/14 04:16:55;;;;;;;5.40;2.40;;;;;;;6.80;80.44;99989.91;131075;1252;107532;-73
2023/01/14 04:20:01;;;;;;;5.90;2.70;;;;;;;6.80;80.15;99994.62;131186;1252;108632;-73
2023/01/14 04:23:06;;;;;;;4.50;2.40;;;;;;;6.81;80.00;99996.69;131105;1248;107235;-74
2023/01/14 04:26:12;;;;;;;6.10;2.50;;;;;;;6.81;80.19;100000.02;131251;1247;108362;-75
2023/01/14 04:29:17;;;;;;;9.20;4.40;;;;;;;6.81;80.27;99998.83;131349;1252;107394;-76
2023/01/14 04:32:23;;;;;;;25.50;12.00;;;;;;;6.81;80.21;100003.77;131081;1248;107483;-73
2023/01/14 04:35:28;;;;;;;10.20;6.50;;;;;;;6.83;80.05;100010.29;131224;1248;107298;-73
2023/01/14 04:38:34;;;;;;;14.90;8.20;;;;;;;6.88;80.10;100012.73;131236;1255;107438;-74
2023/01/14 04:45:14;;;;;;;7.00;4.30;;;;;;;7.00;79.81;100014.61;130613;1258;107540;-75
2023/01/14 04:48:21;;;;;;;8.90;4.30;;;;;;;7.02;80.00;100017.83;131213;1253;107483;-75
2023/01/14 04:51:27;;;;;;;4.60;2.80;;;;;;;7.02;79.90;100019.20;131242;1247;106546;-75
2023/01/14 04:54:32;;;;;;;6.90;3.30;;;;;;;7.02;80.20;100025.58;131348;1252;107315;-74
2023/01/14 04:57:38;;;;;;;6.50;3.50;;;;;;;7.00;79.53;100029.28;131440;1251;105653;-75
2023/01/14 05:00:44;;;;;;;5.20;3.00;;;;;;;6.99;79.75;100034.90;131197;1254;108354;-74
2023/01/14 05:03:50;;;;;;;5.90;2.30;;;;;;;6.98;79.93;100032.71;131327;1252;106547;-74
2023/01/14 05:06:55;;;;;;;18.10;7.00;;;;;;;6.94;79.61;100039.01;131375;1261;108618;-74
2023/01/14 05:10:01;;;;;;;33.90;8.80;;;;;;;6.93;79.47;100034.92;131086;1248;107549;-74
2023/01/14 05:13:07;;;;;;;47.80;19.30;;;;;;;6.95;79.94;100033.68;131361;1252;107531;-74
2023/01/14 05:16:16;;;;;;;77.40;28.00;;;;;;;6.99;79.57;100032.27;131363;1252;107353;-74
2023/01/14 05:19:21;;;;;;;70.10;23.50;;;;;;;7.03;79.55;100043.76;131059;1248;107216;-73
2023/01/14 05:22:27;;;;;;;44.60;13.90;;;;;;;7.06;79.40;100038.36;131157;1253;107493;-74
2023/01/14 05:25:34;;;;;;;143.40;38.40;;;;;;;7.08;79.42;100040.28;131097;1252;107485;-73
2023/01/14 05:28:40;;;;;;;49.90;16.10;;;;;;;7.09;79.35;100044.25;131158;1248;107210;-74
2023/01/14 05:31:46;;;;;;;26.60;9.70;;;;;;;7.08;79.22;100045.19;131379;1252;107100;-74
2023/01/14 05:34:52;;;;;;;37.10;13.70;;;;;;;7.06;79.22;100050.83;131188;1252;107274;-74
2023/01/14 05:37:57;;;;;;;39.90;16.50;;;;;;;7.04;79.18;100053.14;131223;1252;108700;-73
2023/01/14 05:41:06;;;;;;;94.70;29.60;;;;;;;7.01;78.95;100061.79;131180;1247;107412;-76
2023/01/14 05:47:57;;;;;;;23.20;7.60;;;;;;;6.95;79.39;100078.77;131110;1265;107517;-75
2023/01/14 05:51:31;;;;;;;88.50;25.90;;;;;;;6.98;79.05;100087.64;131218;1252;108971;-76
2023/01/14 05:55:06;;;;;;;53.90;17.00;;;;;;;7.04;79.18;100092.44;131094;1250;108343;-75
2023/01/14 05:58:27;;;;;;;30.50;10.00;;;;;;;7.12;79.23;100097.84;131110;1258;108483;-77
2023/01/14 06:08:21;;;;;;;37.70;13.00;;;;;;;7.08;79.02;100100.95;130936;1247;107387;-75
2023/01/14 06:11:28;;;;;;;45.90;17.90;;;;;;;7.05;78.68;100105.27;131172;1250;109748;-75
2023/01/14 06:14:35;;;;;;;73.10;33.00;;;;;;;7.03;78.98;100107.42;131162;1249;107562;-75
2023/01/14 06:17:45;;;;;;;124.30;58.40;;;;;;;7.00;78.98;100107.27;131188;1250;107709;-73
2023/01/14 06:20:52;;;;;;;81.10;37.20;;;;;;;6.97;79.02;100113.41;131096;1253;107518;-73
2023/01/14 06:23:59;;;;;;;67.50;31.00;;;;;;;6.93;78.96;100112.66;131172;1250;106232;-73
2023/01/14 06:27:04;;;;;;;15.20;7.70;;;;;;;6.91;78.83;100118.36;131211;1250;107550;-72
2023/01/14 06:30:12;;;;;;;24.60;13.40;;;;;;;6.92;78.99;100125.31;131165;1252;106396;-75
2023/01/14 06:33:18;;;;;;;15.90;8.20;;;;;;;6.95;79.02;100129.45;131168;1252;107528;-77
2023/01/14 06:36:24;;;;;;;12.20;6.80;;;;;;;6.99;79.01;100135.70;131108;1251;106679;-75
2023/01/14 06:39:30;;;;;;;49.30;31.70;;;;;;;7.01;78.66;100140.29;131196;1252;107550;-75
2023/01/14 06:42:36;;;;;;;18.70;9.70;;;;;;;7.03;78.80;100143.84;131179;1248;107385;-73
2023/01/14 06:45:41;;;;;;;21.10;12.40;;;;;;;7.03;78.72;100143.11;131175;1252;107552;-73
2023/01/14 06:48:47;;;;;;;11.00;5.90;;;;;;;7.01;78.69;100144.73;131261;1252;107338;-73
2023/01/14 06:51:53;;;;;;;14.90;9.90;;;;;;;6.98;78.67;100143.20;131354;1251;107337;-73
2023/01/14 06:54:58;;;;;;;9.70;5.90;;;;;;;6.96;78.77;100143.00;131413;1251;106607;-72
2023/01/14 06:58:04;;;;;;;31.00;23.00;;;;;;;6.95;78.78;100144.01;131208;1251;107224;-73
2023/01/14 07:01:10;;;;;;;12.40;7.90;;;;;;;6.93;78.68;100151.10;131042;1248;107505;-76
2023/01/14 07:04:16;;;;;;;76.10;36.30;;;;;;;6.92;78.77;100154.17;131139;1252;107836;-73
2023/01/14 07:07:22;;;;;;;60.60;32.40;;;;;;;6.91;78.64;100157.60;131147;1261;107528;-75
2023/01/14 07:10:27;;;;;;;87.90;45.80;;;;;;;6.89;78.75;100156.71;131073;1254;107447;-73
2023/01/14 07:13:33;;;;;;;156.10;79.10;;;;;;;6.87;78.75;100156.21;131246;1251;108658;-73
2023/01/14 07:16:38;;;;;;;308.80;125.90;;;;;;;6.82;78.20;100157.64;131344;1252;107426;-72
2023/01/14 07:19:44;;;;;;;182.20;63.80;;;;;;;6.77;78.83;100162.02;131207;1248;106674;-76
2023/01/14 07:22:49;;;;;;;236.50;80.40;;;;;;;6.69;78.62;100167.95;131179;1252;107335;-73
2023/01/14 07:25:56;;;;;;;406.80;128.20;;;;;;;6.62;78.67;100168.54;131215;1256;107260;-74
2023/01/14 07:29:02;;;;;;;689.00;249.20;;;;;;;6.55;78.70;100172.30;131116;1254;107861;-73
2023/01/14 07:32:08;;;;;;;228.30;65.50;;;;;;;6.48;78.55;100172.02;131311;1250;108547;-74
2023/01/14 07:35:14;;;;;;;149.90;48.70;;;;;;;6.42;78.71;100175.52;131134;1252;107453;-75
2023/01/14 07:38:20;;;;;;;192.00;60.60;;;;;;;6.38;78.94;100177.09;131157;1252;106543;-75
2023/01/14 07:41:25;;;;;;;284.20;105.00;;;;;;;6.37;79.03;100182.11;131213;1250;109431;-76
2023/01/14 07:44:31;;;;;;;287.70;106.20;;;;;;;6.39;78.91;100184.46;131180;1252;107524;-75
2023/01/14 07:47:56;;;;;;;56.00;23.30;;;;;;;6.40;78.40;100192.30;131298;1252;107419;-76
2023/01/14 07:51:04;;;;;;;47.10;20.40;;;;;;;6.39;78.61;100192.54;131280;1252;109041;-76
2023/01/14 07:54:10;;;;;;;282.00;120.80;;;;;;;6.38;78.60;100196.15;131164;1247;107521;-76
2023/01/14 07:57:16;;;;;;;56.00;24.50;;;;;;;6.37;78.59;100195.92;131106;1252;106092;-76
2023/01/14 08:00:22;;;;;;;168.80;86.80;;;;;;;6.35;78.82;100199.44;131112;1252;106904;-76
2023/01/14 08:03:28;;;;;;;72.80;43.00;;;;;;;6.33;78.64;100203.48;131085;1252;108672;-77
2023/01/14 08:06:34;;;;;;;27.20;14.60;;;;;;;6.35;78.88;100207.74;131062;1248;107506;-76
2023/01/14 08:09:40;;;;;;;30.30;15.30;;;;;;;6.38;78.73;100210.15;131256;1253;107546;-76
2023/01/14 08:12:45;;;;;;;54.10;22.80;;;;;;;6.44;78.92;100211.03;131255;1252;106112;-75
2023/01/14 08:15:57;;;;;;;42.00;17.00;;;;;;;6.54;79.29;100214.66;131083;1261;107542;-75
2023/01/14 08:19:03;;;;;;;511.90;173.00;;;;;;;6.65;79.05;100218.30;131253;1252;107478;-81
2023/01/14 08:22:08;;;;;;;138.50;45.10;;;;;;;6.79;79.08;100228.65;131452;1252;107557;-83
2023/01/14 08:25:14;;;;;;;52.20;18.70;;;;;;;6.91;78.89;100232.96;131491;1250;107433;-83
2023/01/14 08:28:20;;;;;;;98.90;31.90;;;;;;;7.03;78.73;100230.67;131482;1251;108192;-82
2023/01/14 08:31:26;;;;;;;32.10;11.40;;;;;;;7.15;78.88;100228.97;131475;1254;106505;-82
2023/01/14 08:34:31;;;;;;;285.40;87.50;;;;;;;7.24;78.43;100227.35;131498;1252;107143;-75
2023/01/14 08:37:37;;;;;;;178.70;57.10;;;;;;;7.31;78.62;100227.60;131313;1252;106783;-76
2023/01/14 08:40:43;;;;;;;753.60;336.60;;;;;;;7.37;78.57;100230.11;131336;1252;107546;-74
2023/01/14 08:43:51;;;;;;;392.00;155.20;;;;;;;7.38;78.21;100233.67;131427;1252;107429;-77
2023/01/14 08:46:57;;;;;;;125.80;48.90;;;;;;;7.39;78.21;100236.95;131323;1248;107495;-77
2023/01/14 08:50:03;;;;;;;163.10;62.80;;;;;;;7.42;78.40;100243.21;131306;1252;107803;-78
2023/01/14 08:53:08;;;;;;;334.50;119.80;;;;;;;7.45;78.29;100247.02;131289;1252;107542;-78
2023/01/14 08:56:16;;;;;;;113.20;57.60;;;;;;;7.47;78.07;100248.67;131308;1252;106692;-79
2023/01/14 08:59:21;;;;;;;80.30;44.40;;;;;;;7.54;78.19;100252.16;131373;1252;107521;-77
2023/01/14 09:02:27;;;;;;;20.40;11.00;;;;;;;7.65;78.11;100256.16;131156;1252;107465;-75
2023/01/14 09:05:35;;;;;;;11.20;6.10;;;;;;;7.75;77.94;100259.36;131087;1253;107591;-76
2023/01/14 09:18:51;;;;;;;8.20;4.80;;;;;;;7.98;77.38;100263.15;131220;1252;106135;-81
2023/01/14 09:21:56;;;;;;;11.20;6.40;;;;;;;8.01;77.35;100261.13;131498;1252;107524;-82
2023/01/14 09:25:02;;;;;;;10.90;5.50;;;;;;;8.07;77.34;100263.77;131553;1251;108631;-81
2023/01/14 09:28:08;;;;;;;6.90;3.40;;;;;;;8.11;77.18;100261.70;131564;1251;107525;-82
2023/01/14 09:31:13;;;;;;;9.20;4.00;;;;;;;8.12;77.10;100263.13;131446;1251;108620;-81
2023/01/14 09:34:19;;;;;;;8.20;3.50;;;;;;;8.15;77.11;100264.49;131505;1253;106505;-81
2023/01/14 09:37:26;;;;;;;13.50;6.80;;;;;;;8.18;76.98;100261.75;131490;1252;108787;-82
2023/01/14 09:40:31;;;;;;;8.90;3.80;;;;;;;8.18;77.17;100268.24;131492;1253;108393;-81
2023/01/14 09:43:37;;;;;;;9.30;3.80;;;;;;;8.21;76.60;100267.67;131559;1252;107545;-78
2023/01/14 09:46:43;;;;;;;7.80;3.60;;;;;;;8.22;76.69;100272.13;131460;1252;107519;-80
2023/01/14 09:49:48;;;;;;;8.40;3.60;;;;;;;8.33;76.67;100272.83;131555;1252;107501;-81
2023/01/14 09:53:06;;;;;;;5.60;3.20;;;;;;;8.42;76.70;100272.33;131562;1251;107456;-78
2023/01/14 09:56:20;;;;;;;9.60;4.00;;;;;;;8.50;76.31;100276.12;131524;1251;107426;-82
2023/01/14 09:59:35;;;;;;;125.50;63.50;;;;;;;8.54;75.90;100268.42;131084;1252;107657;-79
2023/01/14 10:02:46;;;;;;;52.00;25.30;;;;;;;8.56;75.97;100264.20;131175;1253;107359;-81
2023/01/14 10:05:57;;;;;;;127.00;55.80;;;;;;;8.57;76.04;100270.11;131212;1251;107301;-83
2023/01/14 10:09:07;;;;;;;221.20;83.10;;;;;;;8.57;76.21;100264.25;131271;1252;106527;-83
2023/01/14 10:12:18;;;;;;;137.90;48.10;;;;;;;8.55;76.17;100268.03;131289;1252;107378;-82
2023/01/14 10:15:35;;;;;;;200.40;63.40;;;;;;;8.55;76.37;100268.40;131125;1250;107674;-81
2023/01/14 10:18:48;;;;;;;723.80;288.00;;;;;;;8.55;76.07;100268.37;131195;1250;108655;-82
2023/01/14 10:22:02;;;;;;;252.20;76.70;;;;;;;8.54;76.25;100268.79;131194;1254;107518;-82
2023/01/14 10:25:17;;;;;;;302.40;83.50;;;;;;;8.58;76.20;100268.77;131210;1248;107375;-82
2023/01/14 10:28:26;;;;;;;92.40;27.80;;;;;;;8.59;75.98;100267.42;131292;1253;107452;-82
2023/01/14 10:31:34;;;;;;;384.00;119.40;;;;;;;8.64;75.96;100264.86;131234;1261;108727;-82
2023/01/14 10:34:43;;;;;;;105.60;37.40;;;;;;;8.68;75.81;100259.78;131305;1252;107545;-81
2023/01/14 10:37:49;;;;;;;573.20;204.30;;;;;;;8.73;75.82;100258.24;131367;1252;107532;-82
2023/01/14 10:40:58;;;;;;;182.50;57.60;;;;;;;8.75;75.78;100253.82;131148;1252;107517;-82
2023/01/14 10:44:04;;;;;;;267.50;76.50;;;;;;;8.79;75.51;100252.85;131208;1250;107428;-82
2023/01/14 10:47:13;;;;;;;380.00;119.60;;;;;;;8.85;75.43;100251.45;131285;1255;107538;-81
2023/01/14 10:50:26;;;;;;;364.10;110.40;;;;;;;8.94;75.36;100254.52;131187;1259;107663;-82
2023/01/14 10:53:32;;;;;;;449.00;159.00;;;;;;;9.05;75.50;100252.98;131185;1252;107272;-82
2023/01/14 10:56:38;;;;;;;602.70;220.00;;;;;;;9.17;74.58;100257.52;131226;1259;107605;-82
2023/01/14 10:59:50;;;;;;;496.00;204.50;;;;;;;9.17;74.58;100256.23;131251;1252;107554;-82
2023/01/14 11:02:57;;;;;;;231.30;85.70;;;;;;;9.20;74.54;100253.70;131448;1261;107439;-82
2023/01/14 11:06:06;;;;;;;195.30;76.10;;;;;;;9.27;74.06;100256.40;131306;1252;107862;-82
2023/01/14 11:09:22;;;;;;;157.00;69.00;;;;;;;9.29;73.77;100258.39;131326;1261;107394;-82
2023/01/14 11:12:30;;;;;;;145.90;50.50;;;;;;;9.27;74.29;100256.77;131236;1252;106444;-82
2023/01/14 11:15:38;;;;;;;285.30;109.60;;;;;;;9.28;74.00;100258.64;131593;1252;107547;-82
2023/01/14 11:18:53;;;;;;;266.70;123.60;;;;;;;9.24;73.82;100257.17;131569;1252;107217;-83
2023/01/14 11:22:02;;;;;;;218.70;100.80;;;;;;;9.20;73.51;100248.30;131146;1253;107387;-82
2023/01/14 11:25:23;;;;;;;141.50;72.30;;;;;;;9.18;73.80;100242.29;131207;1252;107611;-82
2023/01/14 11:28:29;;;;;;;132.20;58.20;;;;;;;9.19;73.43;100244.35;131194;1261;107530;-82
2023/01/14 11:31:38;;;;;;;53.60;31.20;;;;;;;9.14;73.48;100239.34;131546;1261;107487;-82
2023/01/14 11:34:49;;;;;;;263.50;59.70;;;;;;;9.11;73.08;100242.83;131460;1252;107272;-82
2023/01/14 11:37:56;;;;;;;116.00;33.40;;;;;;;9.11;73.44;100241.20;131271;1252;107489;-82
2023/01/14 11:44:28;;;;;;;17.10;7.30;;;;;;;9.13;73.04;100241.95;131268;1253;107520;-82
2023/01/14 11:47:48;;;;;;;10.70;4.90;;;;;;;9.12;73.56;100243.27;131360;1250;107810;-82
2023/01/14 11:51:00;;;;;;;7.60;4.30;;;;;;;9.15;73.33;100239.56;131846;1251;107605;-84
2023/01/14 11:54:15;;;;;;;8.00;4.60;;;;;;;9.15;73.34;100237.63;131624;1252;106799;-80
2023/01/14 11:57:22;;;;;;;8.00;4.00;;;;;;;9.15;73.24;100234.46;131543;1253;106311;-82
2023/01/14 12:00:28;;;;;;;8.00;4.00;;;;;;;9.15;73.39;100235.83;131445;1261;108455;-83
2023/01/14 12:03:41;;;;;;;11.40;5.10;;;;;;;9.15;73.56;100229.50;131362;1254;106650;-83
2023/01/14 12:06:54;;;;;;;7.20;3.80;;;;;;;9.16;73.30;100226.17;131385;1252;108667;-82
2023/01/14 12:10:03;;;;;;;6.00;4.30;;;;;;;9.18;73.25;100219.27;131229;1251;106662;-82
2023/01/14 12:16:53;;;;;;;6.60;3.40;;;;;;;9.19;73.20;100208.86;131834;1252;107644;-83
2023/01/14 12:20:03;;;;;;;12.80;7.90;;;;;;;9.19;73.32;100202.62;131552;1252;107553;-83
2023/01/14 12:23:15;;;;;;;9.70;5.00;;;;;;;9.21;73.19;100194.09;131566;1251;106439;-83
2023/01/14 12:26:26;;;;;;;9.10;4.40;;;;;;;9.27;73.07;100191.81;131508;1260;105679;-82
2023/01/14 12:29:39;;;;;;;6.30;4.00;;;;;;;9.34;73.13;100193.28;131628;1263;107532;-82
2023/01/14 12:32:48;;;;;;;8.40;4.20;;;;;;;9.32;72.68;100192.06;131575;1253;107506;-83
2023/01/14 12:36:03;;;;;;;7.70;3.60;;;;;;;9.28;72.82;100190.67;131548;1259;107512;-83
2023/01/14 12:46:13;;;;;;;7.90;4.10;;;;;;;9.13;72.76;100181.54;131547;1260;108729;-82
2023/01/14 12:49:21;;;;;;;8.30;3.90;;;;;;;9.06;72.87;100182.77;131561;1253;107446;-82
2023/01/14 12:52:30;;;;;;;7.90;3.90;;;;;;;8.99;72.99;100182.73;131529;1248;107523;-82
2023/01/14 12:55:41;;;;;;;8.10;4.50;;;;;;;8.94;72.98;100185.89;131484;1260;107452;-83
2023/01/14 12:58:56;;;;;;;9.70;5.00;;;;;;;8.84;73.02;100191.09;131370;1253;107446;-83
2023/01/14 13:02:06;;;;;;;8.70;4.40;;;;;;;8.74;72.82;100192.81;131331;1252;107692;-82
2023/01/14 13:05:16;;;;;;;8.70;4.50;;;;;;;8.69;72.91;100192.66;131318;1261;107353;-82
2023/01/14 13:08:29;;;;;;;7.40;4.00;;;;;;;8.72;73.16;100190.05;131453;1252;107537;-81
2023/01/14 13:11:45;;;;;;;8.50;4.10;;;;;;;8.83;73.01;100187.45;131519;1262;108603;-81
2023/01/14 13:14:57;;;;;;;9.40;4.30;;;;;;;8.95;73.07;100177.81;131469;1252;107545;-82
2023/01/14 13:18:05;;;;;;;10.30;4.80;;;;;;;9.11;72.59;100174.31;131607;1253;107230;-82
2023/01/14 13:21:12;;;;;;;9.40;4.90;;;;;;;9.20;72.66;100177.50;131605;1248;107512;-82
2023/01/14 13:24:32;;;;;;;7.80;4.20;;;;;;;9.21;72.54;100179.89;131299;1254;108620;-78
2023/01/14 13:27:39;;;;;;;9.60;4.90;;;;;;;9.17;72.25;100182.63;131551;1252;106816;-80
2023/01/14 13:30:47;;;;;;;9.40;5.30;;;;;;;9.16;72.33;100179.73;131389;1253;107557;-76
2023/01/14 13:34:26;;;;;;;8.70;4.70;;;;;;;9.14;72.31;100182.91;131412;1253;107541;-79
2023/01/14 13:37:46;;;;;;;8.60;4.40;;;;;;;9.15;72.53;100180.35;131596;1258;106451;-80
2023/01/14 13:41:06;;;;;;;10.50;4.80;;;;;;;9.11;72.38;100177.00;131349;1260;107530;-80
2023/01/14 13:44:24;;;;;;;7.80;5.00;;;;;;;9.05;72.36;100178.11;131229;1252;107517;-80
2023/01/14 13:47:34;;;;;;;8.00;4.60;;;;;;;8.97;72.46;100179.35;131322;1261;107359;-80
2023/01/14 13:50:40;;;;;;;6.50;4.10;;;;;;;8.89;72.22;100181.13;131431;1253;107381;-79
2023/01/14 13:53:55;;;;;;;7.50;4.40;;;;;;;8.84;72.37;100177.93;131467;1254;108461;-80
2023/01/14 13:57:19;;;;;;;7.70;4.20;;;;;;;8.78;72.39;100180.96;131426;1253;108246;-79
2023/01/14 14:00:46;;;;;;;8.30;4.30;;;;;;;8.68;72.12;100180.45;131367;1248;107459;-79
2023/01/14 14:03:53;;;;;;;8.90;3.90;;;;;;;8.57;72.19;100177.75;131495;1261;107780;-79
2023/01/14 14:06:58;;;;;;;7.30;4.20;;;;;;;8.46;72.19;100174.91;131412;1252;107534;-81
2023/01/14 14:10:10;;;;;;;21.40;13.50;;;;;;;8.36;72.40;100169.40;131247;1261;107515;-79
2023/01/14 14:16:50;;;;;;;8.40;5.00;;;;;;;8.17;72.37;100167.52;131217;1261;107597;-77
2023/01/14 14:19:59;;;;;;;8.10;4.60;;;;;;;8.10;72.43;100168.77;131412;1253;107387;-77
2023/01/14 14:23:07;;;;;;;9.30;4.20;;;;;;;8.01;72.32;100171.50;131427;1261;107594;-78
2023/01/14 14:26:16;;;;;;;8.00;3.80;;;;;;;7.89;72.40;100164.42;132288;1253;109044;-77
2023/01/14 14:29:24;;;;;;;9.50;4.30;;;;;;;7.79;72.61;100160.89;131308;1248;107300;-77
2023/01/14 14:32:31;;;;;;;7.40;3.60;;;;;;;7.69;72.46;100158.39;131533;1263;108635;-77
2023/01/14 14:35:44;;;;;;;8.30;4.10;;;;;;;7.61;72.44;100161.95;131132;1254;107519;-78
2023/01/14 14:38:51;;;;;;;8.00;3.90;;;;;;;7.54;72.69;100158.65;131063;1253;107524;-77
2023/01/14 14:41:59;;;;;;;8.30;4.30;;;;;;;7.52;72.61;100155.89;131121;1254;107427;-77
2023/01/14 14:45:21;;;;;;;10.60;5.00;;;;;;;7.48;72.65;100150.34;131245;1254;108968;-77
2023/01/14 14:48:29;;;;;;;9.10;4.50;;;;;;;7.43;72.53;100146.54;131336;1253;107489;-77
2023/01/14 14:51:43;;;;;;;9.60;4.90;;;;;;;7.37;72.49;100149.23;131436;1261;107490;-77
2023/01/14 14:54:50;;;;;;;9.00;4.70;;;;;;;7.29;72.90;100149.17;131432;1254;108652;-77
2023/01/14 14:57:56;;;;;;;22.60;14.70;;;;;;;7.20;72.55;100148.05;131435;1248;107318;-77
2023/01/14 15:01:04;;;;;;;14.60;8.40;;;;;;;7.10;72.62;100149.58;131296;1261;107624;-77
2023/01/14 15:04:17;;;;;;;14.40;7.50;;;;;;;7.01;72.72;100149.83;131186;1252;107474;-77
2023/01/14 15:07:24;;;;;;;13.70;6.90;;;;;;;6.92;72.62;100149.21;131129;1256;107507;-77
2023/01/14 15:10:31;;;;;;;19.80;9.40;;;;;;;6.82;72.88;100147.73;131250;1254;107487;-76
2023/01/14 15:13:42;;;;;;;17.50;8.80;;;;;;;6.74;73.27;100149.23;131341;1252;108699;-76